Time;durP1;ratioP1;P1;durP2;ratioP2;P2;SDS_P1;SDS_P2;PMS_P1;PMS_P2;Temp;Humidity;BMP_temperature;BMP_pressure;BME280_temperature;BME280_humidity;BME280_pressure;Samples;Min_cycle;Max_cycle;Signal;HPM_P1;HPM_P2
2021/12/15 00:00:57;;;;;;;;;;;8.40;99.90;;;;;;5030319;28;19986;-76
2021/12/15 00:03:24;;;;;;;;;;;8.40;99.90;;;;;;5025548;28;19976;-76
2021/12/15 00:05:51;;;;;;;;;;;8.50;99.90;;;;;;5017972;28;19967;-77
2021/12/15 00:08:19;;;;;;;;;;;8.40;99.90;;;;;;5019952;28;19988;-75
2021/12/15 00:10:48;;;;;;;;;;;8.40;99.90;;;;;;5013352;28;19980;-73
2021/12/15 00:13:16;;;;;;;;;;;8.40;99.90;;;;;;5015921;28;20017;-75
2021/12/15 00:15:43;;;;;;;;;;;8.40;99.90;;;;;;5025726;28;19931;-75
2021/12/15 00:18:10;;;;;;;;;;;8.40;99.90;;;;;;5022093;28;20020;-75
2021/12/15 00:20:37;;;;;;;;;;;8.40;99.90;;;;;;5027968;28;20032;-76
2021/12/15 00:23:04;;;;;;;;;;;8.40;99.90;;;;;;5021218;28;20020;-74
2021/12/15 00:25:34;;;;;;;;;;;8.40;99.90;;;;;;5013634;28;20020;-73
2021/12/15 00:28:01;;;;;;;;;;;8.40;99.90;;;;;;5025877;28;19925;-74
2021/12/15 00:30:28;;;;;;;;;;;8.40;99.90;;;;;;5027214;28;19968;-74
2021/12/15 00:32:54;;;;;;;;;;;8.40;99.90;;;;;;5024091;28;19979;-75
2021/12/15 00:35:21;;;;;;;;;;;8.40;99.90;;;;;;5014662;28;19976;-74
2021/12/15 00:37:49;;;;;;;;;;;8.30;99.90;;;;;;5019270;28;19987;-75
2021/12/15 00:40:16;;;;;;;;;;;8.40;99.90;;;;;;5016511;28;19987;-74
2021/12/15 00:42:44;;;;;;;;;;;8.40;99.90;;;;;;5025206;28;19953;-73
2021/12/15 00:45:11;;;;;;;;;;;8.40;99.90;;;;;;5021557;28;19961;-74
2021/12/15 00:47:38;;;;;;;;;;;8.40;99.90;;;;;;5021040;28;19960;-74
2021/12/15 00:50:07;;;;;;;;;;;8.40;99.90;;;;;;5015733;28;19925;-74
2021/12/15 00:52:34;;;;;;;;;;;8.40;99.90;;;;;;5023173;28;19931;-74
2021/12/15 00:55:00;;;;;;;;;;;8.40;99.90;;;;;;5025125;28;20028;-74
2021/12/15 00:57:27;;;;;;;;;;;8.40;99.90;;;;;;5019500;28;21815;-74
2021/12/15 00:59:55;;;;;;;;;;;8.40;99.90;;;;;;5026242;28;19968;-74
2021/12/15 01:02:25;;;;;;;;;;;8.30;99.90;;;;;;5016358;28;19965;-75
2021/12/15 01:04:52;;;;;;;;;;;8.30;99.90;;;;;;5017091;28;19971;-75
2021/12/15 01:07:19;;;;;;;;;;;8.40;99.90;;;;;;5025507;28;19956;-74
2021/12/15 01:09:48;;;;;;;;;;;8.40;99.90;;;;;;5026880;28;20008;-76
2021/12/15 01:12:26;;;;;;;;;;;8.30;99.90;;;;;;5022228;28;19953;-74
2021/12/15 01:20:27;;;;;;;;;;;8.40;99.90;;;;;;5030906;28;19940;-74
2021/12/15 01:22:55;;;;;;;;;;;8.40;99.90;;;;;;5030578;28;19976;-74
2021/12/15 01:25:24;;;;;;;;;;;8.40;99.90;;;;;;5033397;28;20020;-74
2021/12/15 01:27:51;;;;;;;;;;;8.40;99.90;;;;;;5029897;28;20016;-74
2021/12/15 01:30:20;;;;;;;;;;;8.40;99.90;;;;;;5032165;28;19940;-74
2021/12/15 01:32:49;;;;;;;;;;;8.50;99.90;;;;;;5024638;28;19932;-74
2021/12/15 01:35:16;;;;;;;;;;;8.40;99.90;;;;;;5015722;28;20012;-75
2021/12/15 01:37:43;;;;;;;;;;;8.40;99.90;;;;;;5021503;28;20024;-74
2021/12/15 01:40:16;;;;;;;;;;;8.40;99.90;;;;;;5015036;28;19925;-74
2021/12/15 01:42:43;;;;;;;;;;;8.40;99.90;;;;;;5014142;28;19930;-74
2021/12/15 01:48:01;;;;;;;;;;;8.40;99.90;;;;;;5031099;28;19932;-74
2021/12/15 01:50:27;;;;;;;;;;;8.40;99.90;;;;;;5029208;28;19929;-73
2021/12/15 01:52:54;;;;;;;;;;;8.40;99.90;;;;;;5021585;28;19976;-74
2021/12/15 01:55:21;;;;;;;;;;;8.40;99.90;;;;;;5030896;28;19968;-74
2021/12/15 01:57:48;;;;;;;;;;;8.40;99.90;;;;;;5033291;28;20007;-75
2021/12/15 02:00:17;;;;;;;;;;;8.40;99.90;;;;;;5031432;28;20335;-74
2021/12/15 02:02:44;;;;;;;;;;;8.40;99.90;;;;;;5026521;28;19925;-74
2021/12/15 02:05:12;;;;;;;;;;;8.40;99.90;;;;;;5030977;28;19931;-74
2021/12/15 02:07:42;;;;;;;;;;;8.40;99.90;;;;;;5028223;28;19977;-78
2021/12/15 02:10:08;;;;;;;;;;;8.40;99.90;;;;;;5027710;28;19979;-74
2021/12/15 02:12:37;;;;;;;;;;;8.40;99.90;;;;;;5028697;28;19932;-77
2021/12/15 02:15:07;;;;;;;;;;;8.40;99.90;;;;;;5031698;28;19929;-73
2021/12/15 02:17:33;;;;;;;;;;;8.30;99.90;;;;;;5020120;28;20526;-74
2021/12/15 02:20:00;;;;;;;;;;;8.30;99.90;;;;;;5031348;28;19961;-74
2021/12/15 02:22:30;;;;;;;;;;;8.30;99.90;;;;;;5028909;28;19979;-74
2021/12/15 02:24:57;;;;;;;;;;;8.30;99.90;;;;;;5030186;28;19969;-74
2021/12/15 02:27:30;;;;;;;;;;;8.30;99.90;;;;;;5022328;28;19953;-75
2021/12/15 02:30:03;;;;;;;;;;;8.30;99.90;;;;;;5030356;28;19929;-75
2021/12/15 02:32:40;;;;;;;;;;;8.30;99.90;;;;;;5031924;28;19948;-74
2021/12/15 02:37:49;;;;;;;;;;;8.30;99.90;;;;;;4974298;28;19929;-74
2021/12/15 02:40:18;;;;;;;;;;;8.30;99.90;;;;;;5029079;28;19957;-74
2021/12/15 02:42:46;;;;;;;;;;;8.30;99.90;;;;;;5028275;28;19931;-75
2021/12/15 02:45:14;;;;;;;;;;;8.30;99.90;;;;;;5024883;28;20019;-74
2021/12/15 02:47:41;;;;;;;;;;;8.30;99.90;;;;;;5026403;28;19934;-75
2021/12/15 02:50:10;;;;;;;;;;;8.30;99.90;;;;;;5028944;28;20016;-76
2021/12/15 02:52:37;;;;;;;;;;;8.30;99.90;;;;;;5028948;28;19972;-75
2021/12/15 02:55:07;;;;;;;;;;;8.30;99.90;;;;;;5031859;28;19925;-74
2021/12/15 02:57:36;;;;;;;;;;;8.30;99.90;;;;;;5024029;28;20471;-74
2021/12/15 03:00:17;;;;;;;;;;;8.30;99.90;;;;;;5031279;28;20388;-74
2021/12/15 03:05:38;;;;;;;;;;;8.30;99.90;;;;;;5027949;28;19925;-74
2021/12/15 03:08:09;;;;;;;;;;;8.30;99.90;;;;;;5032508;28;19925;-75
2021/12/15 03:16:08;;;;;;;;;;;8.40;99.90;;;;;;5022160;28;19982;-75
2021/12/15 03:18:34;;;;;;;;;;;8.40;99.90;;;;;;5029940;28;19980;-75
2021/12/15 03:21:02;;;;;;;;;;;8.40;99.90;;;;;;5029338;28;20059;-75
2021/12/15 03:23:32;;;;;;;;;;;8.40;99.90;;;;;;5024561;28;19933;-75
2021/12/15 03:26:01;;;;;;;;;;;8.50;99.90;;;;;;5016932;28;20012;-74
2021/12/15 03:34:10;;;;;;;;;;;8.40;99.90;;;;;;5029451;28;19932;-78
2021/12/15 03:37:03;;;;;;;;;;;8.40;99.90;;;;;;5027417;28;19925;-74
2021/12/15 03:39:32;;;;;;;;;;;8.50;99.90;;;;;;5023185;28;19932;-73
2021/12/15 03:42:04;;;;;;;;;;;8.40;99.90;;;;;;5025637;28;19931;-75
2021/12/15 03:44:33;;;;;;;;;;;8.40;99.90;;;;;;5023067;28;19936;-74
2021/12/15 03:47:00;;;;;;;;;;;8.40;99.90;;;;;;5023726;28;19980;-74
2021/12/15 03:49:27;;;;;;;;;;;8.40;99.90;;;;;;5015197;28;20395;-74
2021/12/15 03:51:53;;;;;;;;;;;8.50;99.90;;;;;;5019991;28;19944;-74
2021/12/15 03:54:20;;;;;;;;;;;8.40;99.90;;;;;;5015870;28;20365;-74
2021/12/15 03:56:49;;;;;;;;;;;8.50;99.90;;;;;;5025565;28;19943;-74
2021/12/15 03:59:18;;;;;;;;;;;8.50;99.90;;;;;;5020501;28;19925;-74
2021/12/15 04:01:46;;;;;;;;;;;8.40;99.90;;;;;;5018501;28;19925;-74
2021/12/15 04:04:12;;;;;;;;;;;8.50;99.90;;;;;;5027975;28;19975;-75
2021/12/15 04:06:40;;;;;;;;;;;8.40;99.90;;;;;;5017337;28;20016;-75
2021/12/15 04:09:07;;;;;;;;;;;8.50;99.90;;;;;;5013747;28;19932;-74
2021/12/15 04:11:35;;;;;;;;;;;8.40;99.90;;;;;;5021268;28;19936;-75
2021/12/15 04:14:03;;;;;;;;;;;8.40;99.90;;;;;;5029020;28;19979;-75
2021/12/15 04:16:46;;;;;;;;;;;8.40;99.90;;;;;;5016650;28;20447;-75
2021/12/15 04:19:14;;;;;;;;;;;8.50;99.90;;;;;;5028610;28;20004;-75
2021/12/15 04:21:41;;;;;;;;;;;8.50;99.90;;;;;;5020794;28;19925;-74
2021/12/15 04:24:07;;;;;;;;;;;8.50;99.90;;;;;;5020693;28;20354;-76
2021/12/15 04:26:34;;;;;;;;;;;8.50;99.90;;;;;;5030513;28;19995;-74
2021/12/15 04:29:03;;;;;;;;;;;8.50;99.90;;;;;;5028450;28;20315;-74
2021/12/15 04:31:32;;;;;;;;;;;8.50;99.90;;;;;;5022855;28;19930;-75
2021/12/15 04:34:01;;;;;;;;;;;8.50;99.90;;;;;;5026669;28;19925;-74
2021/12/15 04:36:28;;;;;;;;;;;8.50;99.90;;;;;;5023538;28;19930;-74
2021/12/15 04:38:57;;;;;;;;;;;8.50;99.90;;;;;;5025257;28;19932;-76
2021/12/15 04:41:24;;;;;;;;;;;8.50;99.90;;;;;;5023537;28;19968;-75
2021/12/15 04:43:57;;;;;;;;;;;8.50;99.90;;;;;;5022133;28;19925;-75
2021/12/15 04:46:24;;;;;;;;;;;8.60;99.90;;;;;;5028898;28;20081;-74
2021/12/15 04:48:53;;;;;;;;;;;8.50;99.90;;;;;;5028884;28;19984;-75
2021/12/15 04:51:20;;;;;;;;;;;8.50;99.90;;;;;;5026962;28;20476;-75
2021/12/15 04:53:47;;;;;;;;;;;8.50;99.90;;;;;;5027023;28;20024;-75
2021/12/15 04:56:13;;;;;;;;;;;8.60;99.90;;;;;;5033280;28;19941;-76
2021/12/15 04:58:40;;;;;;;;;;;8.60;99.90;;;;;;5025617;28;20388;-75
2021/12/15 05:01:08;;;;;;;;;;;8.60;99.90;;;;;;5015269;28;19964;-76
2021/12/15 05:03:35;;;;;;;;;;;8.60;99.90;;;;;;5023454;28;20439;-75
2021/12/15 05:06:03;;;;;;;;;;;8.60;99.90;;;;;;5026471;28;20718;-75
2021/12/15 05:08:30;;;;;;;;;;;8.60;99.90;;;;;;5028101;28;19925;-75
2021/12/15 05:10:57;;;;;;;;;;;8.60;99.90;;;;;;5028672;28;19932;-74
2021/12/15 05:13:24;;;;;;;;;;;8.60;99.90;;;;;;5022883;28;19925;-75
2021/12/15 05:15:51;;;;;;;;;;;8.60;99.90;;;;;;5015614;28;19926;-75
2021/12/15 05:18:18;;;;;;;;;;;8.60;99.90;;;;;;5030225;28;19925;-75
2021/12/15 05:20:48;;;;;;;;;;;8.60;99.90;;;;;;5014968;28;19972;-75
2021/12/15 05:23:17;;;;;;;;;;;8.60;99.90;;;;;;5024557;28;20404;-74
2021/12/15 05:25:45;;;;;;;;;;;8.60;99.90;;;;;;5015265;28;19926;-76
2021/12/15 05:28:11;;;;;;;;;;;8.60;99.90;;;;;;5022474;28;19972;-75
2021/12/15 05:30:38;;;;;;;;;;;8.60;99.90;;;;;;5023922;28;19935;-75
2021/12/15 05:33:05;;;;;;;;;;;8.70;99.90;;;;;;5033921;28;19925;-75
2021/12/15 05:35:33;;;;;;;;;;;8.70;99.90;;;;;;5030392;28;19980;-75
2021/12/15 05:38:01;;;;;;;;;;;8.60;99.90;;;;;;5030062;28;20371;-75
2021/12/15 05:40:29;;;;;;;;;;;8.60;99.90;;;;;;5015342;28;19925;-75
2021/12/15 05:42:57;;;;;;;;;;;8.70;99.90;;;;;;5032397;28;19931;-75
2021/12/15 05:45:23;;;;;;;;;;;8.70;99.90;;;;;;5016153;28;20020;-75
2021/12/15 05:47:50;;;;;;;;;;;8.70;99.90;;;;;;5028845;28;19925;-76
2021/12/15 05:50:17;;;;;;;;;;;8.70;99.90;;;;;;5032515;28;19925;-74
2021/12/15 05:52:44;;;;;;;;;;;8.70;99.90;;;;;;5016100;28;19932;-75
2021/12/15 05:55:12;;;;;;;;;;;8.70;99.90;;;;;;5015533;28;19936;-73
2021/12/15 05:57:40;;;;;;;;;;;8.70;99.90;;;;;;5024144;28;19948;-74
2021/12/15 06:00:08;;;;;;;;;;;8.70;99.90;;;;;;5036165;28;19925;-75
2021/12/15 06:02:35;;;;;;;;;;;8.70;99.90;;;;;;5027090;28;19925;-74
2021/12/15 06:05:01;;;;;;;;;;;8.70;99.90;;;;;;5033754;28;19925;-76
2021/12/15 06:07:28;;;;;;;;;;;8.70;99.90;;;;;;5033480;28;20012;-75
2021/12/15 06:09:55;;;;;;;;;;;8.70;99.90;;;;;;5021599;28;20355;-76
2021/12/15 06:12:22;;;;;;;;;;;8.70;99.90;;;;;;5028026;28;19925;-75
2021/12/15 06:14:51;;;;;;;;;;;8.70;99.90;;;;;;5035589;28;19933;-77
2021/12/15 06:17:24;;;;;;;;;;;8.70;99.90;;;;;;5036942;28;19937;-75
2021/12/15 06:19:51;;;;;;;;;;;8.70;99.90;;;;;;5033575;28;19925;-77
2021/12/15 06:22:23;;;;;;;;;;;8.70;99.90;;;;;;5032759;28;20003;-74
2021/12/15 06:24:50;;;;;;;;;;;8.70;99.90;;;;;;5019495;28;19926;-73
2021/12/15 06:27:19;;;;;;;;;;;8.70;99.90;;;;;;5034207;28;19999;-75
2021/12/15 06:29:46;;;;;;;;;;;8.70;99.90;;;;;;5030541;28;20403;-73
2021/12/15 06:32:14;;;;;;;;;;;8.60;99.90;;;;;;5030476;28;20403;-73
2021/12/15 06:34:41;;;;;;;;;;;8.70;99.90;;;;;;5022234;28;19932;-74
2021/12/15 06:37:07;;;;;;;;;;;8.70;99.90;;;;;;5028789;28;20578;-74
2021/12/15 06:39:34;;;;;;;;;;;8.60;99.90;;;;;;5018457;28;20031;-73
2021/12/15 06:42:01;;;;;;;;;;;8.70;99.90;;;;;;5024071;28;19932;-72
2021/12/15 06:44:28;;;;;;;;;;;8.70;99.90;;;;;;5020333;28;19925;-73
2021/12/15 06:58:15;;;;;;;;;;;8.70;99.90;;;;;;5024703;28;19976;-74
2021/12/15 07:00:44;;;;;;;;;;;8.70;99.90;;;;;;5023607;28;19936;-75
2021/12/15 07:03:11;;;;;;;;;;;8.70;99.90;;;;;;5020283;28;19932;-73
2021/12/15 07:05:39;;;;;;;;;;;8.70;99.90;;;;;;5022510;28;19943;-73
2021/12/15 07:08:07;;;;;;;;;;;8.70;99.90;;;;;;5034197;22;19933;-73
2021/12/15 07:10:37;;;;;;;;;;;8.70;99.90;;;;;;5020660;28;19929;-71
2021/12/15 07:13:04;;;;;;;;;;;8.70;99.90;;;;;;5019504;28;19941;-71
2021/12/15 07:15:33;;;;;;;;;;;8.70;99.90;;;;;;5019512;28;19925;-71
2021/12/15 07:18:04;;;;;;;;;;;8.80;99.90;;;;;;5020525;28;20003;-71
2021/12/15 07:20:37;;;;;;;;;;;8.80;99.90;;;;;;5019121;28;19929;-70
2021/12/15 07:23:07;;;;;;;;;;;8.80;99.90;;;;;;5021684;28;19932;-73
2021/12/15 07:25:34;;;;;;;;;;;8.80;99.90;;;;;;5011939;28;19926;-73
2021/12/15 07:28:01;;;;;;;;;;;8.80;99.90;;;;;;5018610;28;20532;-73
2021/12/15 07:30:28;;;;;;;;;;;8.80;99.90;;;;;;5022907;28;19932;-73
2021/12/15 07:32:54;;;;;;;;;;;8.90;99.90;;;;;;5015823;28;19940;-74
2021/12/15 07:35:22;;;;;;;;;;;8.90;99.90;;;;;;5025054;28;20090;-74
2021/12/15 07:37:48;;;;;;;;;;;8.80;99.90;;;;;;5014719;28;20028;-73
2021/12/15 07:40:20;;;;;;;;;;;8.90;99.90;;;;;;5018612;28;19925;-73
2021/12/15 07:43:05;;;;;;;;;;;8.90;99.90;;;;;;5014636;28;19930;-73
2021/12/15 07:45:33;;;;;;;;;;;8.90;99.90;;;;;;5029062;28;19925;-74
2021/12/15 07:48:01;;;;;;;;;;;8.90;99.90;;;;;;5022177;28;19932;-74
2021/12/15 07:50:28;;;;;;;;;;;8.90;99.90;;;;;;5021141;28;19964;-73
2021/12/15 07:52:55;;;;;;;;;;;8.90;99.90;;;;;;5028589;28;20504;-74
2021/12/15 07:55:25;;;;;;;;;;;9.00;99.90;;;;;;5021259;28;19926;-73
2021/12/15 07:57:52;;;;;;;;;;;9.00;99.90;;;;;;5015592;28;19926;-74
2021/12/15 08:00:19;;;;;;;;;;;9.00;99.90;;;;;;5018325;28;19930;-74
2021/12/15 08:02:46;;;;;;;;;;;9.00;99.90;;;;;;5016210;28;19925;-74
2021/12/15 08:05:13;;;;;;;;;;;9.00;99.90;;;;;;5020994;28;20016;-74
2021/12/15 08:07:39;;;;;;;;;;;9.00;99.90;;;;;;5016560;28;20399;-74
2021/12/15 08:10:10;;;;;;;;;;;9.00;99.90;;;;;;5016389;28;19971;-73
2021/12/15 08:12:40;;;;;;;;;;;9.10;99.90;;;;;;5016202;28;20351;-74
2021/12/15 08:15:08;;;;;;;;;;;9.10;99.90;;;;;;5023683;28;20400;-74
2021/12/15 08:17:34;;;;;;;;;;;9.10;99.90;;;;;;5010800;28;20389;-75
2021/12/15 08:20:01;;;;;;;;;;;9.00;99.90;;;;;;5019200;28;19961;-75
2021/12/15 08:22:31;;;;;;;;;;;9.10;99.90;;;;;;5017294;28;19926;-74
2021/12/15 08:24:57;;;;;;;;;;;9.10;99.90;;;;;;5023384;28;19952;-74
2021/12/15 08:27:24;;;;;;;;;;;9.10;99.90;;;;;;5023731;28;19947;-74
2021/12/15 08:29:52;;;;;;;;;;;9.10;99.90;;;;;;5029545;28;19925;-75
2021/12/15 08:32:19;;;;;;;;;;;9.10;99.90;;;;;;5024170;28;19925;-74
2021/12/15 08:34:45;;;;;;;;;;;9.10;99.90;;;;;;5026893;28;19925;-77
2021/12/15 08:37:13;;;;;;;;;;;9.10;99.90;;;;;;5027182;28;19960;-73
2021/12/15 08:39:41;;;;;;;;;;;9.10;99.90;;;;;;5023648;28;19929;-75
2021/12/15 08:42:08;;;;;;;;;;;9.10;99.90;;;;;;5021758;28;19933;-74
2021/12/15 08:44:35;;;;;;;;;;;9.10;99.90;;;;;;5026434;28;20327;-73
2021/12/15 08:47:03;;;;;;;;;;;9.10;99.90;;;;;;5025731;28;19951;-74
2021/12/15 08:49:30;;;;;;;;;;;9.10;99.90;;;;;;5022960;28;19925;-73
2021/12/15 08:51:57;;;;;;;;;;;9.10;99.90;;;;;;5028520;28;19956;-73
2021/12/15 08:54:24;;;;;;;;;;;9.20;99.90;;;;;;5029778;28;19992;-74
2021/12/15 08:56:51;;;;;;;;;;;9.20;99.90;;;;;;5030709;28;20024;-74
2021/12/15 08:59:19;;;;;;;;;;;9.20;99.90;;;;;;5024468;28;20012;-73
2021/12/15 09:01:46;;;;;;;;;;;9.20;99.90;;;;;;5026285;28;19995;-73
2021/12/15 09:04:15;;;;;;;;;;;9.20;99.90;;;;;;5024718;28;20016;-72
2021/12/15 09:06:42;;;;;;;;;;;9.20;99.90;;;;;;5026769;28;20051;-74
2021/12/15 09:09:10;;;;;;;;;;;9.20;99.90;;;;;;5022640;28;19965;-72
2021/12/15 09:11:37;;;;;;;;;;;9.20;99.90;;;;;;5022816;28;20056;-72
2021/12/15 09:14:04;;;;;;;;;;;9.30;99.90;;;;;;5023178;28;19924;-73
2021/12/15 09:16:32;;;;;;;;;;;9.30;99.90;;;;;;5029202;28;19925;-73
2021/12/15 09:19:01;;;;;;;;;;;9.30;99.90;;;;;;5024564;28;19933;-72
2021/12/15 09:21:31;;;;;;;;;;;9.30;99.90;;;;;;5026497;28;19929;-72
2021/12/15 09:23:58;;;;;;;;;;;9.30;99.90;;;;;;5028966;28;19933;-72
2021/12/15 09:26:25;;;;;;;;;;;9.30;99.90;;;;;;5024151;28;20358;-73
2021/12/15 09:28:52;;;;;;;;;;;9.30;99.90;;;;;;5026135;28;20446;-72
2021/12/15 09:31:19;;;;;;;;;;;9.30;99.90;;;;;;5026000;28;20019;-73
2021/12/15 09:33:47;;;;;;;;;;;9.40;99.90;;;;;;5027962;28;19933;-73
2021/12/15 09:36:18;;;;;;;;;;;9.40;99.90;;;;;;5027046;28;19933;-73
2021/12/15 09:38:47;;;;;;;;;;;9.40;99.90;;;;;;5021842;28;20347;-73
2021/12/15 09:41:15;;;;;;;;;;;9.40;99.90;;;;;;5026696;28;19956;-71
2021/12/15 09:43:43;;;;;;;;;;;9.50;99.90;;;;;;5028138;28;19956;-74
2021/12/15 09:46:31;;;;;;;;;;;9.50;99.90;;;;;;5027922;28;19925;-73
2021/12/15 09:57:18;;;;;;;;;;;9.50;99.90;;;;;;5025784;28;19940;-73
2021/12/15 10:02:47;;;;;;;;;;;9.60;99.90;;;;;;5024879;28;19932;-74
2021/12/15 10:05:28;;;;;;;;;;;9.60;99.90;;;;;;5022271;28;19925;-75
2021/12/15 10:18:51;;;;;;;;;;;9.80;99.90;;;;;;5021332;28;19932;-74
2021/12/15 10:21:23;;;;;;;;;;;9.70;99.90;;;;;;5026865;28;19933;-75
2021/12/15 10:23:51;;;;;;;;;;;9.80;99.90;;;;;;5017035;28;19951;-74
2021/12/15 10:26:20;;;;;;;;;;;9.80;99.90;;;;;;5025053;28;19931;-74
2021/12/15 10:28:49;;;;;;;;;;;9.80;99.90;;;;;;5019604;28;19932;-73
2021/12/15 10:31:16;;;;;;;;;;;9.80;99.90;;;;;;5019948;28;20422;-74
2021/12/15 10:33:46;;;;;;;;;;;9.90;99.90;;;;;;5023305;28;19932;-76
2021/12/15 10:36:14;;;;;;;;;;;9.80;99.90;;;;;;5020467;28;20015;-74
2021/12/15 10:38:44;;;;;;;;;;;9.90;99.90;;;;;;5018493;28;19964;-74
2021/12/15 10:41:15;;;;;;;;;;;9.90;99.90;;;;;;5019905;28;20016;-75
2021/12/15 10:43:46;;;;;;;;;;;9.90;99.90;;;;;;5022751;28;20008;-75
2021/12/15 10:46:14;;;;;;;;;;;9.90;99.90;;;;;;5026552;28;20008;-74
2021/12/15 10:48:46;;;;;;;;;;;9.90;99.90;;;;;;5025895;28;19933;-75
2021/12/15 10:51:21;;;;;;;;;;;9.90;99.90;;;;;;5021676;28;19933;-74
2021/12/15 10:53:48;;;;;;;;;;;9.90;99.90;;;;;;5023677;28;19955;-75
2021/12/15 10:56:15;;;;;;;;;;;9.90;99.90;;;;;;5022250;28;20388;-75
2021/12/15 10:58:44;;;;;;;;;;;9.90;99.90;;;;;;5029358;28;19931;-72
2021/12/15 11:01:29;;;;;;;;;;;9.90;99.90;;;;;;5021298;28;19995;-72
2021/12/15 11:03:57;;;;;;;;;;;9.90;99.90;;;;;;5019156;28;23072;-72
2021/12/15 11:06:27;;;;;;;;;;;9.90;99.90;;;;;;5021497;28;20010;-72
2021/12/15 11:09:09;;;;;;;;;;;10.00;99.90;;;;;;5024560;28;20073;-72
2021/12/15 11:11:35;;;;;;;;;;;10.00;99.90;;;;;;5022513;28;19928;-72
2021/12/15 11:14:22;;;;;;;;;;;10.00;99.90;;;;;;5021955;28;19933;-72
2021/12/15 11:17:01;;;;;;;;;;;10.00;99.90;;;;;;5022795;28;19977;-76
2021/12/15 11:19:38;;;;;;;;;;;10.10;99.90;;;;;;5024949;28;19933;-74
2021/12/15 11:22:27;;;;;;;;;;;10.10;99.90;;;;;;5025287;28;19929;-75
2021/12/15 11:24:55;;;;;;;;;;;10.10;99.90;;;;;;5017452;28;20008;-76
2021/12/15 11:27:22;;;;;;;;;;;10.10;99.90;;;;;;5022613;28;20309;-74
2021/12/15 11:29:49;;;;;;;;;;;10.10;99.90;;;;;;5031163;28;19933;-75
2021/12/15 11:32:30;;;;;;;;;;;10.10;99.90;;;;;;5028090;28;20371;-75
2021/12/15 11:35:00;;;;;;;;;;;10.10;99.90;;;;;;5025288;28;19979;-75
2021/12/15 11:37:42;;;;;;;;;;;10.10;99.90;;;;;;5023089;28;19933;-74
2021/12/15 11:40:13;;;;;;;;;;;10.10;99.90;;;;;;5017786;28;21408;-74
2021/12/15 11:42:40;;;;;;;;;;;10.10;99.90;;;;;;5019074;28;20694;-73
2021/12/15 11:45:07;;;;;;;;;;;10.00;99.90;;;;;;5019973;28;19940;-74
2021/12/15 11:47:35;;;;;;;;;;;10.00;99.90;;;;;;5020116;28;19936;-73
2021/12/15 11:50:12;;;;;;;;;;;10.00;99.90;;;;;;5006228;28;19987;-75
2021/12/15 11:52:40;;;;;;;;;;;10.10;99.90;;;;;;5014864;28;19932;-74
2021/12/15 11:55:08;;;;;;;;;;;10.10;99.90;;;;;;5025910;28;19936;-77
2021/12/15 11:57:36;;;;;;;;;;;10.10;99.90;;;;;;5022647;28;19940;-73
2021/12/15 12:00:07;;;;;;;;;;;10.10;99.90;;;;;;5023805;28;19925;-73
2021/12/15 12:02:34;;;;;;;;;;;10.10;99.90;;;;;;5023892;28;19925;-74
2021/12/15 12:05:03;;;;;;;;;;;10.20;99.90;;;;;;5022729;28;19925;-75
2021/12/15 12:07:31;;;;;;;;;;;10.20;99.90;;;;;;5019863;28;20020;-74
2021/12/15 12:10:00;;;;;;;;;;;10.20;99.90;;;;;;5023603;28;20058;-73
2021/12/15 12:12:33;;;;;;;;;;;10.20;99.90;;;;;;5024508;28;19925;-74
2021/12/15 12:15:01;;;;;;;;;;;10.20;99.90;;;;;;5019842;28;19935;-73
2021/12/15 12:17:30;;;;;;;;;;;10.20;99.90;;;;;;5019111;28;19984;-73
2021/12/15 12:19:58;;;;;;;;;;;10.20;99.90;;;;;;5023569;28;19936;-74
2021/12/15 12:22:28;;;;;;;;;;;10.30;99.90;;;;;;5018843;28;20032;-74
2021/12/15 12:24:56;;;;;;;;;;;10.30;99.90;;;;;;5022589;28;19929;-74
2021/12/15 12:27:24;;;;;;;;;;;10.30;99.90;;;;;;5012402;28;20120;-73
2021/12/15 12:29:51;;;;;;;;;;;10.40;99.90;;;;;;5017541;28;19940;-75
2021/12/15 12:32:19;;;;;;;;;;;10.30;99.90;;;;;;5015985;28;19925;-75
2021/12/15 12:34:47;;;;;;;;;;;10.30;99.90;;;;;;5022744;28;20004;-77
2021/12/15 12:37:14;;;;;;;;;;;10.40;99.90;;;;;;5018620;28;19933;-73
2021/12/15 12:39:41;;;;;;;;;;;10.30;99.90;;;;;;5025168;28;19925;-72
2021/12/15 12:42:08;;;;;;;;;;;10.30;99.90;;;;;;5022048;28;19929;-75
2021/12/15 12:44:37;;;;;;;;;;;10.30;99.90;;;;;;5022448;28;19925;-78
2021/12/15 12:47:10;;;;;;;;;;;10.40;99.90;;;;;;5021220;28;19929;-75
2021/12/15 12:59:21;;;;;;;;;;;10.30;99.90;;;;;;5015188;28;20074;-74
2021/12/15 13:00:50;;;;;;;;;;;10.40;99.90;;;;;;5020750;28;19929;-75
2021/12/15 13:03:30;;;;;;;;;;;10.30;99.90;;;;;;5025049;28;19932;-75
2021/12/15 13:06:00;;;;;;;;;;;10.30;99.90;;;;;;5017363;28;19925;-76
2021/12/15 13:08:36;;;;;;;;;;;10.30;99.90;;;;;;5026963;28;19968;-74
2021/12/15 13:11:09;;;;;;;;;;;10.30;99.90;;;;;;5023841;28;19947;-75
2021/12/15 13:13:37;;;;;;;;;;;10.30;99.90;;;;;;5021488;28;19925;-79
2021/12/15 13:16:05;;;;;;;;;;;10.30;99.90;;;;;;5026244;28;19933;-76
2021/12/15 13:18:43;;;;;;;;;;;10.30;99.90;;;;;;5024297;28;19925;-75
2021/12/15 13:21:13;;;;;;;;;;;10.30;99.90;;;;;;5026705;28;20012;-74
2021/12/15 13:23:45;;;;;;;;;;;10.30;99.90;;;;;;5029551;28;19925;-75
2021/12/15 13:29:11;;;;;;;;;;;10.20;99.90;;;;;;5023884;28;19933;-76
2021/12/15 13:31:51;;;;;;;;;;;10.20;99.90;;;;;;5028466;28;19925;-74
2021/12/15 13:34:33;;;;;;;;;;;10.10;99.90;;;;;;5029088;28;20060;-77
2021/12/15 13:37:01;;;;;;;;;;;10.20;99.90;;;;;;5030321;28;20431;-76
2021/12/15 13:39:41;;;;;;;;;;;10.20;99.90;;;;;;5026292;28;19929;-76
2021/12/15 13:42:14;;;;;;;;;;;10.10;99.90;;;;;;5020724;28;19931;-76
2021/12/15 13:44:41;;;;;;;;;;;10.20;99.90;;;;;;5022701;28;19925;-75
2021/12/15 13:47:15;;;;;;;;;;;10.20;99.90;;;;;;5024064;28;20019;-73
2021/12/15 13:49:43;;;;;;;;;;;10.20;99.90;;;;;;5020434;28;19979;-76
2021/12/15 13:52:28;;;;;;;;;;;10.20;99.90;;;;;;5022527;28;20388;-75
2021/12/15 13:55:19;;;;;;;;;;;10.20;99.90;;;;;;5024095;28;19929;-72
2021/12/15 13:57:56;;;;;;;;;;;10.20;99.90;;;;;;5025361;28;20402;-72
2021/12/15 14:00:25;;;;;;;;;;;10.20;99.90;;;;;;5025648;28;19929;-75
2021/12/15 14:03:11;;;;;;;;;;;10.20;99.90;;;;;;5025316;28;19925;-76
2021/12/15 14:05:39;;;;;;;;;;;10.20;99.90;;;;;;5001128;28;19929;-72
2021/12/15 14:08:08;;;;;;;;;;;10.20;99.90;;;;;;5024424;28;19925;-72
2021/12/15 14:10:45;;;;;;;;;;;10.20;99.90;;;;;;5023529;28;19932;-72
2021/12/15 14:13:11;;;;;;;;;;;10.20;99.90;;;;;;5024992;28;19933;-72
2021/12/15 14:15:45;;;;;;;;;;;10.10;99.90;;;;;;5024635;28;19925;-73
2021/12/15 14:18:14;;;;;;;;;;;10.20;99.90;;;;;;5025883;28;19937;-72
2021/12/15 14:20:45;;;;;;;;;;;10.20;99.90;;;;;;5023068;28;20336;-75
2021/12/15 14:23:14;;;;;;;;;;;10.10;99.90;;;;;;5026951;28;19932;-73
2021/12/15 14:25:40;;;;;;;;;;;10.20;99.90;;;;;;5019906;28;20384;-74
2021/12/15 14:28:09;;;;;;;;;;;10.20;99.90;;;;;;5015828;28;19933;-73
2021/12/15 14:30:36;;;;;;;;;;;10.10;99.90;;;;;;5019383;28;20468;-73
2021/12/15 14:33:03;;;;;;;;;;;10.10;99.90;;;;;;5022830;28;19932;-73
2021/12/15 14:35:30;;;;;;;;;;;10.10;99.90;;;;;;5016989;28;20035;-74
2021/12/15 14:37:57;;;;;;;;;;;10.10;99.90;;;;;;5018061;28;20363;-76
2021/12/15 14:40:24;;;;;;;;;;;10.00;99.90;;;;;;5026126;28;20019;-79
2021/12/15 14:42:50;;;;;;;;;;;10.00;99.90;;;;;;5022079;28;20523;-74
2021/12/15 14:45:18;;;;;;;;;;;10.10;99.90;;;;;;5025407;28;20267;-79
2021/12/15 14:47:45;;;;;;;;;;;10.10;99.90;;;;;;5017549;28;19932;-73
2021/12/15 14:50:14;;;;;;;;;;;10.10;99.90;;;;;;5021772;28;20431;-74
2021/12/15 14:52:42;;;;;;;;;;;10.00;99.90;;;;;;5013219;28;19971;-73
2021/12/15 14:55:11;;;;;;;;;;;10.00;99.90;;;;;;5025750;28;19925;-72
2021/12/15 14:57:38;;;;;;;;;;;10.00;99.90;;;;;;5017388;28;19925;-73
2021/12/15 15:00:07;;;;;;;;;;;10.00;99.90;;;;;;5018706;28;19959;-74
2021/12/15 15:02:35;;;;;;;;;;;9.90;99.90;;;;;;5017980;28;20023;-72
2021/12/15 15:05:04;;;;;;;;;;;9.90;99.90;;;;;;5024431;28;19951;-73
2021/12/15 15:07:32;;;;;;;;;;;9.90;99.90;;;;;;5022401;28;20082;-73
2021/12/15 15:09:59;;;;;;;;;;;9.90;99.90;;;;;;5021292;28;19929;-74
2021/12/15 15:12:27;;;;;;;;;;;9.80;99.90;;;;;;5024951;28;20105;-75
2021/12/15 15:14:56;;;;;;;;;;;9.80;99.90;;;;;;5021012;28;19925;-74
2021/12/15 15:17:30;;;;;;;;;;;9.80;99.90;;;;;;5020174;28;19931;-73
2021/12/15 15:19:59;;;;;;;;;;;9.80;99.90;;;;;;5026094;28;19929;-79
2021/12/15 15:22:29;;;;;;;;;;;9.80;99.90;;;;;;5018461;28;20079;-77
2021/12/15 15:24:56;;;;;;;;;;;9.80;99.90;;;;;;5024680;28;19926;-77
2021/12/15 15:27:23;;;;;;;;;;;9.80;99.90;;;;;;5022398;28;19952;-75
2021/12/15 15:29:51;;;;;;;;;;;9.80;99.90;;;;;;5019840;28;19941;-75
2021/12/15 15:32:20;;;;;;;;;;;9.80;99.90;;;;;;5020100;28;19972;-76
2021/12/15 15:34:48;;;;;;;;;;;9.70;99.90;;;;;;5023695;28;20304;-76
2021/12/15 15:37:21;;;;;;;;;;;9.80;99.90;;;;;;5019172;28;19925;-76
2021/12/15 15:39:59;;;;;;;;;;;9.80;99.90;;;;;;5019342;28;20388;-75
2021/12/15 15:42:26;;;;;;;;;;;9.80;99.90;;;;;;5016147;28;19925;-74
2021/12/15 15:44:53;;;;;;;;;;;9.80;99.90;;;;;;5020346;28;19933;-73
2021/12/15 15:47:21;;;;;;;;;;;9.80;99.90;;;;;;5019828;28;19929;-73